Terminal Aerodrome Forecast
Issued by NWS

Home | Current Version | Previous Version | Text Only | Print | Product List | Glossary On
Versions: 1 2 3 4 5 6 7 8 9 10 11 12 13 14 15 16 17 18 19 20 21 22
000
FTUS42 KTBW 182100 AAA
TAFLAL
TAF AMD
KLAL 182106Z 1821/1918 19008KT P6SM -RA SCT015 BKN060 OVC100
      TEMPO 1821/1824 BKN015
     FM190000 18008KT P6SM VCSH SCT015 BKN060 OVC150
     FM190600 18014KT P6SM BKN020
     FM191200 24012KT P6SM SCT020 BKN030=

USA.gov is the U.S. government's official web portal to all federal, state and local government web resources and services.